Time;durP1;ratioP1;P1;durP2;ratioP2;P2;SDS_P1;SDS_P2;PMS_P1;PMS_P2;Temp;Humidity;BMP_temperature;BMP_pressure;BME280_temperature;BME280_humidity;BME280_pressure;Samples;Min_cycle;Max_cycle;Signal;HPM_P1;HPM_P2
2022/01/17 00:00:23;;;;;;;19.55;10.32;;;;;;;5.27;56.16;100557.34;4375742;32;33595;-89
2022/01/17 00:02:52;;;;;;;24.25;8.70;;;;;;;5.00;57.11;100558.47;4382708;32;32861;-89
2022/01/17 00:05:20;;;;;;;20.67;10.40;;;;;;;4.85;57.49;100543.78;4376169;32;32712;-89
2022/01/17 00:07:48;;;;;;;22.17;10.50;;;;;;;4.89;57.58;100544.63;4400899;32;33551;-89
2022/01/17 00:10:16;;;;;;;22.48;9.93;;;;;;;5.07;57.15;100549.66;4388880;32;33675;-89
2022/01/17 00:12:46;;;;;;;20.33;9.45;;;;;;;5.16;56.67;100540.88;4381762;32;34695;-88
2022/01/17 00:15:23;;;;;;;21.75;10.45;;;;;;;4.96;57.49;100534.97;4375881;32;33363;-88
2022/01/17 00:20:38;;;;;;;19.37;9.23;;;;;;;4.81;58.04;100536.84;4369501;32;33352;-88
2022/01/17 00:23:06;;;;;;;22.33;9.65;;;;;;;4.99;57.55;100534.94;4376624;32;35549;-89
2022/01/17 00:25:34;;;;;;;17.95;9.35;;;;;;;5.04;57.46;100527.91;4383364;32;32690;-89
2022/01/17 00:28:01;;;;;;;21.30;9.82;;;;;;;4.80;58.21;100540.34;4371324;32;33292;-88
2022/01/17 00:30:30;;;;;;;19.58;9.32;;;;;;;5.09;57.30;100536.59;4388316;32;33985;-88
2022/01/17 00:32:57;;;;;;;17.60;8.48;;;;;;;5.06;57.53;100531.38;4389594;32;33253;-88
2022/01/17 00:35:25;;;;;;;21.67;9.15;;;;;;;5.39;56.39;100525.78;4376729;32;32122;-88
2022/01/17 00:37:54;;;;;;;20.52;10.25;;;;;;;5.13;57.36;100533.94;4381933;32;34209;-88
2022/01/17 00:40:22;;;;;;;23.90;10.48;;;;;;;5.00;57.80;100536.69;4372612;32;32750;-88
2022/01/17 00:42:50;;;;;;;16.77;8.45;;;;;;;5.12;57.29;100531.31;4375781;32;33229;-88
2022/01/17 00:45:24;;;;;;;18.48;8.45;;;;;;;5.36;56.50;100535.41;4382923;32;32246;-88
2022/01/17 00:47:55;;;;;;;21.30;9.20;;;;;;;5.37;56.37;100542.41;4364091;32;34012;-88
2022/01/17 00:50:27;;;;;;;18.67;9.30;;;;;;;5.42;56.29;100538.00;4376127;32;34811;-87
2022/01/17 00:52:55;;;;;;;16.30;8.82;;;;;;;5.59;55.83;100543.03;4363092;32;33843;-88
2022/01/17 00:55:24;;;;;;;17.62;8.73;;;;;;;5.53;55.84;100541.34;4383285;32;34000;-87
2022/01/17 00:57:51;;;;;;;16.05;9.00;;;;;;;5.59;55.70;100543.03;4374763;32;33518;-88
2022/01/17 01:00:19;;;;;;;16.92;7.87;;;;;;;5.69;55.40;100546.41;4381619;32;32927;-88
2022/01/17 01:02:53;;;;;;;15.95;8.07;;;;;;;5.70;55.50;100541.16;4375160;32;33907;-88
2022/01/17 01:05:21;;;;;;;19.20;8.90;;;;;;;5.75;55.23;100541.97;4376258;32;33067;-87
2022/01/17 01:07:50;;;;;;;17.92;8.13;;;;;;;5.64;55.54;100541.22;4388062;32;34258;-87
2022/01/17 01:10:18;;;;;;;14.93;8.38;;;;;;;5.67;55.56;100540.34;4380508;32;33130;-87
2022/01/17 01:12:47;;;;;;;19.02;8.90;;;;;;;5.61;55.68;100541.28;4375902;32;33197;-87
2022/01/17 01:15:22;;;;;;;10.85;6.25;;;;;;;5.32;56.81;100529.38;4375884;32;32675;-86
2022/01/17 01:17:53;;;;;;;16.15;7.15;;;;;;;5.59;55.65;100516.84;4383035;32;33546;-85
2022/01/17 01:28:56;;;;;;;11.45;5.80;;;;;;;5.45;55.78;100511.75;4393118;32;32349;-87
2022/01/17 01:31:39;;;;;;;12.07;5.30;;;;;;;5.36;55.99;100504.00;4378676;32;34424;-87
2022/01/17 01:34:08;;;;;;;10.32;5.32;;;;;;;5.59;55.31;100506.34;4383390;32;33495;-87
2022/01/17 01:36:36;;;;;;;12.07;4.93;;;;;;;5.64;55.01;100507.16;4384293;32;32734;-89
2022/01/17 01:39:05;;;;;;;10.70;5.50;;;;;;;5.16;56.26;100509.44;4388420;32;32674;-89
2022/01/17 01:41:42;;;;;;;9.07;4.72;;;;;;;5.27;56.17;100499.75;4363304;32;34196;-89
2022/01/17 01:44:16;;;;;;;11.18;4.60;;;;;;;5.55;55.36;100499.41;4394699;32;33502;-90
2022/01/17 01:46:45;;;;;;;7.85;4.50;;;;;;;5.37;55.43;100498.75;4364081;32;32031;-92
2022/01/17 01:49:36;;;;;;;11.63;4.37;;;;;;;5.77;54.50;100498.25;4396192;32;33252;-90
2022/01/17 01:52:15;;;;;;;10.38;5.05;;;;;;;5.86;53.99;100485.03;4388761;32;33703;-89
2022/01/17 01:58:44;;;;;;;7.82;4.43;;;;;;;5.94;53.90;100495.47;4405475;32;31878;-89
2022/01/17 02:01:11;;;;;;;9.70;4.72;;;;;;;5.29;55.60;100494.50;4390333;32;33500;-88
2022/01/17 02:03:42;;;;;;;8.32;4.65;;;;;;;5.72;54.29;100491.34;4390957;32;33275;-89
2022/01/17 02:06:09;;;;;;;13.35;5.90;;;;;;;5.76;54.21;100487.81;4381938;32;33281;-88
2022/01/17 02:08:37;;;;;;;11.40;5.80;;;;;;;5.81;53.86;100497.34;4391406;32;33447;-88
2022/01/17 02:11:07;;;;;;;9.55;4.62;;;;;;;5.89;53.61;100500.75;4390876;32;33743;-89
2022/01/17 02:13:34;;;;;;;10.77;4.60;;;;;;;5.84;53.81;100501.66;4390949;32;34172;-88
2022/01/17 02:16:04;;;;;;;10.60;5.65;;;;;;;5.75;54.27;100500.06;4379454;32;33180;-89
2022/01/17 02:18:32;;;;;;;10.45;5.15;;;;;;;5.64;54.71;100505.41;4380081;32;33059;-89
2022/01/17 02:23:47;;;;;;;9.35;4.97;;;;;;;5.86;54.02;100495.53;4392081;32;33332;-92
2022/01/17 02:26:30;;;;;;;10.82;6.85;;;;;;;5.76;54.43;100493.06;4387565;32;33139;-88
2022/01/17 02:28:58;;;;;;;11.90;5.80;;;;;;;5.71;54.66;100500.97;4392846;32;32615;-89
2022/01/17 02:31:26;;;;;;;9.57;5.57;;;;;;;5.74;54.81;100495.69;4376810;32;33820;-90
2022/01/17 02:33:54;;;;;;;10.10;5.72;;;;;;;5.43;55.59;100502.19;4392261;32;33479;-91
2022/01/17 02:36:22;;;;;;;10.70;5.22;;;;;;;5.43;55.73;100494.34;4376766;32;33105;-91
2022/01/17 02:38:50;;;;;;;9.88;5.47;;;;;;;5.65;55.01;100487.97;4397475;32;32392;-91
2022/01/17 02:41:18;;;;;;;10.23;5.93;;;;;;;5.71;54.81;100477.37;4399539;32;32889;-91
2022/01/17 02:43:47;;;;;;;11.07;5.72;;;;;;;5.59;55.07;100482.78;4364035;32;34300;-89
2022/01/17 02:46:24;;;;;;;8.15;4.90;;;;;;;5.40;55.46;100475.13;4375665;32;33232;-89
2022/01/17 02:48:54;;;;;;;10.15;5.40;;;;;;;5.70;54.69;100475.66;4397513;32;32600;-89
2022/01/17 02:51:22;;;;;;;10.43;5.32;;;;;;;5.62;55.01;100477.50;4375757;32;33881;-89
2022/01/17 02:53:50;;;;;;;12.37;5.30;;;;;;;5.49;55.31;100466.31;4375717;32;33765;-89
2022/01/17 02:56:19;;;;;;;9.32;5.25;;;;;;;5.54;55.24;100463.63;4400109;32;33266;-88
2022/01/17 02:58:47;;;;;;;8.48;5.43;;;;;;;5.90;54.03;100452.66;4387560;32;32195;-88
2022/01/17 03:01:21;;;;;;;10.48;5.70;;;;;;;5.74;54.49;100448.50;4386491;32;33814;-88
2022/01/17 03:03:49;;;;;;;9.38;4.82;;;;;;;5.70;54.43;100444.22;4393239;32;34799;-88
2022/01/17 03:06:18;;;;;;;9.90;5.65;;;;;;;5.87;53.88;100446.59;4388020;32;33106;-88
2022/01/17 03:08:46;;;;;;;8.50;4.62;;;;;;;5.84;53.78;100433.53;4397217;32;32296;-89
2022/01/17 03:11:17;;;;;;;8.05;4.47;;;;;;;5.38;55.05;100428.91;4383412;32;32637;-88
2022/01/17 03:13:47;;;;;;;8.48;4.70;;;;;;;5.28;55.22;100425.53;4398361;32;33797;-88
2022/01/17 03:16:17;;;;;;;10.43;5.40;;;;;;;5.49;54.78;100428.78;4384677;32;33338;-89
2022/01/17 03:18:50;;;;;;;9.38;4.97;;;;;;;5.71;53.97;100426.75;4382351;32;33335;-88
2022/01/17 03:21:26;;;;;;;8.40;4.62;;;;;;;5.80;53.60;100422.25;4395223;32;33058;-88
2022/01/17 03:23:57;;;;;;;9.32;3.78;;;;;;;5.67;53.83;100425.06;4365356;32;32621;-87
2022/01/17 03:26:29;;;;;;;8.20;4.43;;;;;;;6.04;52.90;100425.44;4393126;32;33747;-87
2022/01/17 03:28:59;;;;;;;7.30;4.25;;;;;;;5.65;53.87;100425.94;4377283;32;33089;-87
2022/01/17 03:31:27;;;;;;;8.30;4.70;;;;;;;5.42;54.30;100429.75;4377276;32;32654;-88
2022/01/17 03:33:54;;;;;;;7.07;4.15;;;;;;;5.77;53.33;100432.75;4388944;32;32509;-89
2022/01/17 03:36:22;;;;;;;10.40;5.18;;;;;;;5.75;53.57;100445.03;4364443;32;32789;-88
2022/01/17 03:38:50;;;;;;;7.62;3.90;;;;;;;5.76;53.73;100446.75;4376862;32;32287;-88
2022/01/17 03:41:18;;;;;;;8.05;3.92;;;;;;;6.00;52.78;100457.81;4364382;32;33179;-88
2022/01/17 03:43:45;;;;;;;7.28;4.20;;;;;;;6.09;52.44;100468.16;4363903;32;33901;-88
2022/01/17 03:46:13;;;;;;;9.00;4.28;;;;;;;6.07;52.86;100462.91;4358013;32;34487;-87
2022/01/17 03:48:41;;;;;;;9.55;4.82;;;;;;;5.97;53.19;100473.56;4376575;32;31914;-88
2022/01/17 03:51:08;;;;;;;8.43;4.65;;;;;;;6.11;52.58;100474.25;4377017;32;34328;-90
2022/01/17 03:53:37;;;;;;;11.12;5.20;;;;;;;6.24;52.23;100470.56;4377326;32;32856;-89
2022/01/17 03:56:04;;;;;;;8.73;5.72;;;;;;;6.18;52.03;100452.28;4376582;32;32851;-89
2022/01/17 03:58:32;;;;;;;9.27;4.47;;;;;;;6.02;52.85;100456.88;4376813;32;32498;-88
2022/01/17 04:01:02;;;;;;;9.30;5.37;;;;;;;5.89;53.16;100464.03;4375598;32;33919;-91
2022/01/17 04:03:30;;;;;;;11.85;4.72;;;;;;;6.16;52.67;100472.41;4376756;32;34615;-89
2022/01/17 04:05:58;;;;;;;8.80;4.25;;;;;;;6.01;52.81;100470.03;4376705;32;33301;-89
2022/01/17 04:08:26;;;;;;;8.35;4.60;;;;;;;6.07;52.81;100472.53;4388951;32;34006;-89
2022/01/17 04:10:54;;;;;;;10.02;4.53;;;;;;;6.43;51.97;100460.63;4388908;32;32742;-90
2022/01/17 04:13:22;;;;;;;11.25;5.18;;;;;;;6.55;51.78;100467.44;4376724;32;33455;-89
2022/01/17 04:15:50;;;;;;;9.20;6.15;;;;;;;6.55;51.36;100454.31;4363005;32;32039;-89
2022/01/17 04:18:23;;;;;;;10.70;5.18;;;;;;;6.28;52.33;100461.75;4375736;32;32864;-90
2022/01/17 04:20:52;;;;;;;11.43;6.50;;;;;;;6.06;53.01;100474.31;4364846;32;33217;-89
2022/01/17 04:23:21;;;;;;;9.88;5.32;;;;;;;6.23;52.68;100481.06;4376625;32;32309;-90
2022/01/17 04:25:49;;;;;;;11.43;5.47;;;;;;;6.33;52.65;100490.53;4363936;32;33094;-90
2022/01/17 04:28:17;;;;;;;9.35;5.43;;;;;;;6.26;52.56;100479.25;4364204;32;33517;-89
2022/01/17 04:30:45;;;;;;;10.43;5.43;;;;;;;6.49;52.14;100485.91;4376257;32;34584;-88
2022/01/17 04:33:14;;;;;;;10.57;5.40;;;;;;;6.47;52.19;100490.31;4376275;32;34031;-88
2022/01/17 04:35:42;;;;;;;8.98;5.12;;;;;;;6.44;52.27;100506.09;4388639;32;33791;-88
2022/01/17 04:38:17;;;;;;;10.98;6.18;;;;;;;6.16;53.15;100490.78;4381806;32;32015;-89
2022/01/17 04:40:47;;;;;;;9.23;5.62;;;;;;;6.48;52.37;100478.94;4388551;32;32411;-88
2022/01/17 04:43:20;;;;;;;10.52;6.05;;;;;;;6.88;51.07;100480.00;4376399;32;32314;-88
2022/01/17 04:45:49;;;;;;;15.68;5.93;;;;;;;6.54;51.76;100468.31;4388992;32;33628;-88
2022/01/17 04:48:18;;;;;;;11.07;6.15;;;;;;;7.03;50.58;100463.09;4389441;32;32158;-88
2022/01/17 04:50:46;;;;;;;16.45;7.72;;;;;;;6.59;51.61;100450.75;4375912;32;32719;-89
2022/01/17 04:53:17;;;;;;;14.57;7.35;;;;;;;6.46;52.19;100449.22;4363993;32;32760;-89
2022/01/17 04:55:45;;;;;;;14.10;6.25;;;;;;;6.51;52.04;100457.91;4376435;32;34033;-89
2022/01/17 04:58:14;;;;;;;11.00;5.32;;;;;;;6.51;52.47;100450.03;4375231;32;32680;-89
2022/01/17 05:00:48;;;;;;;9.57;5.12;;;;;;;6.32;52.59;100441.59;4375819;32;32158;-86
2022/01/17 05:03:21;;;;;;;10.13;5.50;;;;;;;6.81;51.35;100446.84;4376752;32;34008;-85
2022/01/17 05:05:54;;;;;;;10.68;5.93;;;;;;;6.50;52.24;100436.00;4387654;32;33651;-86
2022/01/17 05:08:22;;;;;;;15.48;6.03;;;;;;;6.66;51.91;100439.25;4387516;32;33804;-86
2022/01/17 05:10:53;;;;;;;8.88;5.28;;;;;;;6.84;51.21;100452.06;4388199;32;33530;-86
2022/01/17 05:13:26;;;;;;;9.18;5.15;;;;;;;6.82;51.25;100448.59;4375853;32;33665;-87
2022/01/17 05:16:08;;;;;;;14.07;6.20;;;;;;;6.74;51.82;100445.25;4351876;32;34286;-87
2022/01/17 05:21:03;;;;;;;9.57;5.68;;;;;;;6.50;52.43;100456.16;4376115;32;33107;-87
2022/01/17 05:23:31;;;;;;;11.07;5.30;;;;;;;6.63;51.72;100455.91;4388545;32;32864;-88
2022/01/17 05:25:58;;;;;;;12.25;5.47;;;;;;;6.60;51.86;100463.00;4376222;32;34160;-89
2022/01/17 05:28:27;;;;;;;8.75;4.97;;;;;;;7.08;50.62;100469.12;4376292;32;33318;-89
2022/01/17 05:30:54;;;;;;;11.02;5.50;;;;;;;6.84;51.24;100452.06;4375633;32;32322;-89
2022/01/17 05:33:22;;;;;;;9.13;5.15;;;;;;;6.44;52.31;100466.75;4376253;32;33339;-89
2022/01/17 05:35:50;;;;;;;11.88;6.25;;;;;;;6.25;52.69;100456.53;4386996;32;33694;-90
2022/01/17 05:38:18;;;;;;;8.35;5.15;;;;;;;6.55;52.06;100436.84;4362834;32;32586;-90
2022/01/17 05:40:45;;;;;;;8.13;5.32;;;;;;;6.61;52.25;100441.09;4386538;32;32324;-90
2022/01/17 05:43:13;;;;;;;10.73;5.62;;;;;;;6.12;53.45;100434.00;4374242;32;35400;-91
2022/01/17 05:45:41;;;;;;;10.98;5.70;;;;;;;6.41;52.87;100426.56;4386133;32;33814;-88
2022/01/17 05:48:09;;;;;;;13.25;5.60;;;;;;;6.64;52.07;100427.91;4373686;32;33017;-89
2022/01/17 05:50:36;;;;;;;9.65;5.53;;;;;;;6.59;52.06;100424.50;4360342;32;33800;-89
2022/01/17 05:53:04;;;;;;;13.32;5.68;;;;;;;5.96;54.02;100424.66;4373177;32;33508;-88
2022/01/17 05:55:32;;;;;;;10.20;5.50;;;;;;;6.41;52.54;100413.44;4359984;32;32773;-89
2022/01/17 05:58:01;;;;;;;11.88;5.53;;;;;;;6.50;52.37;100415.03;4373576;32;32170;-89
2022/01/17 06:00:28;;;;;;;9.00;4.78;;;;;;;6.76;51.87;100413.72;4373219;32;33114;-89
2022/01/17 06:02:56;;;;;;;12.55;6.12;;;;;;;6.40;52.58;100413.47;4360669;32;34194;-90
2022/01/17 06:05:28;;;;;;;9.07;4.60;;;;;;;6.32;52.43;100415.38;4361251;32;33513;-89
2022/01/17 06:07:57;;;;;;;9.07;5.62;;;;;;;6.44;52.31;100419.53;4365488;32;32840;-90
2022/01/17 06:10:24;;;;;;;9.15;5.25;;;;;;;6.49;52.22;100417.69;4361876;32;33784;-90
2022/01/17 06:12:52;;;;;;;10.13;5.10;;;;;;;6.80;51.28;100418.88;4386097;32;33121;-88
2022/01/17 06:15:20;;;;;;;9.63;5.12;;;;;;;6.45;52.45;100418.62;4396294;32;34980;-90
2022/01/17 06:17:47;;;;;;;10.60;5.18;;;;;;;6.35;52.55;100416.16;4399256;32;32774;-88
2022/01/17 06:20:15;;;;;;;13.05;5.95;;;;;;;6.43;51.92;100408.16;4365440;32;33110;-89
2022/01/17 06:22:43;;;;;;;9.68;4.50;;;;;;;6.48;52.32;100421.22;4386178;32;33663;-88
2022/01/17 06:25:11;;;;;;;10.38;4.93;;;;;;;6.29;52.85;100426.75;4398285;32;33095;-89
2022/01/17 06:27:39;;;;;;;9.77;5.20;;;;;;;6.48;52.40;100431.72;4360938;32;31264;-89
2022/01/17 06:30:13;;;;;;;8.80;4.55;;;;;;;6.50;52.31;100424.66;4372863;32;34324;-90
2022/01/17 06:32:41;;;;;;;8.93;4.82;;;;;;;6.81;51.54;100417.97;4385765;32;33274;-90
2022/01/17 06:35:11;;;;;;;7.25;4.18;;;;;;;6.42;52.58;100419.56;4386385;32;33828;-91
2022/01/17 06:37:44;;;;;;;8.20;4.95;;;;;;;6.62;51.94;100424.47;4375842;32;32815;-90
2022/01/17 06:40:14;;;;;;;8.13;4.43;;;;;;;6.58;52.07;100413.16;4375777;32;33030;-90
2022/01/17 06:42:42;;;;;;;8.38;5.12;;;;;;;6.78;51.49;100415.41;4377126;32;33557;-90
2022/01/17 06:45:11;;;;;;;8.07;4.25;;;;;;;6.62;51.75;100403.47;4383153;32;33903;-91
2022/01/17 06:47:40;;;;;;;6.35;3.80;;;;;;;6.45;52.20;100398.50;4377100;32;32761;-91
2022/01/17 06:50:08;;;;;;;9.90;3.95;;;;;;;6.30;52.61;100402.25;4389982;32;33290;-91
2022/01/17 06:52:36;;;;;;;8.25;4.07;;;;;;;6.75;51.29;100380.50;4375144;32;32877;-91
2022/01/17 06:55:06;;;;;;;6.18;4.07;;;;;;;6.36;52.35;100396.03;4400034;32;33296;-91
2022/01/17 06:57:34;;;;;;;8.15;4.82;;;;;;;6.27;52.22;100397.09;4393188;32;33846;-90
2022/01/17 07:00:08;;;;;;;6.35;3.97;;;;;;;6.78;51.39;100399.66;4373826;32;34489;-91
2022/01/17 07:02:36;;;;;;;8.27;4.90;;;;;;;6.35;52.55;100389.94;4362381;32;34603;-90
2022/01/17 07:05:04;;;;;;;6.70;3.75;;;;;;;6.37;52.33;100385.53;4386858;32;33778;-90
2022/01/17 07:07:32;;;;;;;9.90;4.40;;;;;;;6.62;51.99;100385.09;4400179;32;32330;-90
2022/01/17 07:10:05;;;;;;;7.28;4.12;;;;;;;6.34;52.72;100377.72;4362756;32;33141;-91
2022/01/17 07:12:36;;;;;;;10.07;3.67;;;;;;;6.38;52.79;100368.91;4399571;32;33008;-91
2022/01/17 07:15:05;;;;;;;7.17;3.90;;;;;;;6.34;52.77;100361.12;4388994;32;33191;-90
2022/01/17 07:17:33;;;;;;;5.75;3.92;;;;;;;6.45;52.62;100364.41;4388545;32;32772;-90
2022/01/17 07:20:03;;;;;;;8.00;3.95;;;;;;;6.72;52.11;100360.41;4401095;32;32862;-90
2022/01/17 07:22:32;;;;;;;6.55;3.85;;;;;;;6.55;52.55;100365.09;4379719;32;35181;-90
2022/01/17 07:25:00;;;;;;;6.57;3.85;;;;;;;6.65;52.09;100369.31;4375440;32;32536;-90
2022/01/17 07:27:35;;;;;;;7.22;3.92;;;;;;;7.15;50.94;100373.56;4378357;32;31815;-90
2022/01/17 07:30:09;;;;;;;7.43;4.47;;;;;;;6.79;52.02;100388.28;4367966;32;32853;-90
2022/01/17 07:32:38;;;;;;;6.65;4.37;;;;;;;6.95;51.24;100396.72;4362294;32;33886;-91
2022/01/17 07:35:07;;;;;;;11.05;4.07;;;;;;;6.82;51.72;100411.84;4375514;32;32758;-90
2022/01/17 07:37:35;;;;;;;6.37;3.83;;;;;;;6.83;51.76;100415.31;4388735;32;31015;-90
2022/01/17 07:40:05;;;;;;;5.10;2.87;;;;;;;6.83;51.89;100429.31;4392537;32;33882;-90
2022/01/17 07:42:33;;;;;;;7.30;3.47;;;;;;;6.69;52.20;100447.06;4387744;32;32436;-89
2022/01/17 07:45:09;;;;;;;6.82;4.03;;;;;;;6.75;52.13;100473.22;4393116;32;32865;-89
2022/01/17 07:50:21;;;;;;;5.45;3.25;;;;;;;6.79;51.99;100495.00;4390335;32;32390;-89
2022/01/17 07:52:51;;;;;;;4.70;3.10;;;;;;;7.04;51.49;100479.72;4387957;32;33704;-89
2022/01/17 07:55:20;;;;;;;6.30;2.83;;;;;;;6.81;52.15;100451.25;4375658;32;32915;-89
2022/01/17 07:57:48;;;;;;;6.62;3.53;;;;;;;7.19;51.14;100424.25;4388143;32;33169;-90
2022/01/17 08:00:22;;;;;;;4.72;3.08;;;;;;;6.97;51.92;100415.06;4376300;32;32944;-90
2022/01/17 08:02:53;;;;;;;4.75;3.25;;;;;;;6.96;52.01;100405.47;4389828;32;33327;-90
2022/01/17 08:05:22;;;;;;;8.07;3.50;;;;;;;7.08;51.73;100413.13;4402641;32;33463;-90
2022/01/17 08:07:50;;;;;;;5.20;3.42;;;;;;;6.54;52.84;100426.34;4364122;32;31606;-90
2022/01/17 08:10:20;;;;;;;7.87;3.60;;;;;;;6.85;52.46;100416.19;4364224;32;32892;-90
2022/01/17 08:12:48;;;;;;;5.32;3.12;;;;;;;7.11;51.80;100407.78;4376954;32;33808;-89
2022/01/17 08:15:16;;;;;;;5.10;3.10;;;;;;;7.11;51.65;100389.41;4389097;32;34195;-90
2022/01/17 08:17:45;;;;;;;6.57;3.47;;;;;;;7.16;51.66;100384.91;4389333;32;33399;-90
2022/01/17 08:20:15;;;;;;;7.78;4.15;;;;;;;6.98;51.85;100369.53;4364484;32;32748;-90
2022/01/17 08:22:45;;;;;;;8.25;3.28;;;;;;;6.91;52.32;100364.41;4376552;32;33440;-90
2022/01/17 08:25:13;;;;;;;7.10;3.67;;;;;;;7.06;52.27;100352.72;4377269;32;32749;-90
2022/01/17 08:27:41;;;;;;;6.82;3.50;;;;;;;7.27;51.19;100350.56;4376695;32;32273;-90
2022/01/17 08:30:10;;;;;;;9.77;4.30;;;;;;;6.90;52.71;100346.94;4377123;32;32919;-90
2022/01/17 08:32:59;;;;;;;6.53;3.47;;;;;;;7.29;51.61;100346.13;4378253;32;33008;-90
2022/01/17 08:35:28;;;;;;;11.27;3.50;;;;;;;7.10;52.27;100362.28;4376928;32;33745;-90
2022/01/17 08:37:56;;;;;;;7.57;3.42;;;;;;;7.06;52.25;100354.50;4389026;32;33154;-90
2022/01/17 08:40:24;;;;;;;5.93;3.20;;;;;;;7.07;52.03;100364.09;4377345;32;32894;-90
2022/01/17 08:42:52;;;;;;;8.07;3.40;;;;;;;7.03;52.48;100370.34;4376701;32;32906;-90
2022/01/17 08:45:23;;;;;;;5.78;3.30;;;;;;;6.91;52.58;100395.06;4377684;32;32791;-89
2022/01/17 08:48:12;;;;;;;8.18;3.45;;;;;;;7.47;51.37;100405.31;4379055;32;32057;-90
2022/01/17 08:50:41;;;;;;;9.10;3.47;;;;;;;7.29;51.62;100412.66;4389750;32;32597;-90
2022/01/17 08:53:13;;;;;;;5.12;3.55;;;;;;;7.34;51.26;100418.69;4384485;32;33329;-90
2022/01/17 08:55:43;;;;;;;6.85;3.78;;;;;;;7.35;51.39;100409.91;4389497;32;32890;-90
2022/01/17 08:58:12;;;;;;;6.35;3.85;;;;;;;7.21;52.17;100401.44;4376990;32;32920;-90
2022/01/17 09:00:40;;;;;;;6.40;3.37;;;;;;;7.07;51.90;100385.97;4389074;32;33722;-89
2022/01/17 09:03:24;;;;;;;6.82;3.72;;;;;;;6.74;53.28;100356.03;4389481;32;33495;-90
2022/01/17 09:05:53;;;;;;;7.78;4.03;;;;;;;6.92;53.12;100324.13;4376000;32;34362;-90
2022/01/17 09:08:22;;;;;;;6.57;3.40;;;;;;;6.61;54.75;100362.37;4377102;32;32220;-89
2022/01/17 09:10:52;;;;;;;5.40;3.22;;;;;;;6.96;53.75;100334.59;4381862;32;32817;-89
2022/01/17 09:13:19;;;;;;;7.53;3.87;;;;;;;6.99;53.79;100332.75;4375949;32;32648;-90
2022/01/17 09:15:47;;;;;;;6.10;3.62;;;;;;;6.83;53.82;100318.19;4376834;32;32491;-89
2022/01/17 09:18:17;;;;;;;7.40;3.80;;;;;;;6.56;54.54;100310.00;4376557;32;34228;-91
2022/01/17 09:20:45;;;;;;;7.82;3.70;;;;;;;6.70;54.33;100322.84;4364412;32;32348;-91
2022/01/17 09:23:13;;;;;;;6.15;3.95;;;;;;;6.96;53.23;100319.69;4388565;32;33865;-90
2022/01/17 09:25:42;;;;;;;7.55;4.00;;;;;;;6.85;53.43;100327.78;4376564;32;33767;-90
2022/01/17 09:28:10;;;;;;;6.82;3.85;;;;;;;6.90;53.15;100319.81;4363863;32;32196;-90
2022/01/17 09:30:38;;;;;;;6.30;4.50;;;;;;;7.30;51.95;100297.94;4364231;32;33436;-90
2022/01/17 09:33:06;;;;;;;8.45;4.47;;;;;;;6.79;53.30;100312.19;4381717;32;32954;-90
2022/01/17 09:35:34;;;;;;;8.38;4.40;;;;;;;7.25;52.10;100303.31;4375945;32;32305;-89
2022/01/17 09:38:02;;;;;;;6.12;3.70;;;;;;;7.22;52.23;100305.16;4364100;32;32410;-90
2022/01/17 09:40:30;;;;;;;6.35;3.67;;;;;;;7.45;51.46;100287.09;4389239;32;32692;-90
2022/01/17 09:42:59;;;;;;;6.97;3.67;;;;;;;7.64;50.91;100293.66;4376178;32;33027;-90
2022/01/17 09:45:26;;;;;;;7.32;3.90;;;;;;;7.26;51.99;100281.37;4376409;32;33065;-90
2022/01/17 09:47:55;;;;;;;6.50;3.75;;;;;;;7.14;52.62;100271.19;4399985;32;32525;-90
2022/01/17 09:50:32;;;;;;;5.97;3.58;;;;;;;7.22;51.96;100268.38;4387373;32;32891;-89
2022/01/17 09:53:02;;;;;;;8.15;4.70;;;;;;;7.08;52.23;100255.56;4375767;32;35047;-90
2022/01/17 09:55:31;;;;;;;9.13;4.28;;;;;;;7.09;52.17;100239.75;4387388;32;33904;-90
2022/01/17 09:58:09;;;;;;;7.87;4.10;;;;;;;7.19;52.04;100235.16;4387799;32;32538;-90
2022/01/17 10:00:39;;;;;;;11.23;4.95;;;;;;;7.24;51.61;100238.56;4377359;32;32320;-90
2022/01/17 10:03:17;;;;;;;8.48;4.78;;;;;;;7.78;50.17;100240.72;4374754;32;33218;-90
2022/01/17 10:05:45;;;;;;;10.35;5.35;;;;;;;7.25;51.27;100248.16;4387091;32;33040;-90
2022/01/17 10:08:17;;;;;;;8.07;4.55;;;;;;;7.51;50.81;100236.19;4399488;32;32298;-90
2022/01/17 10:10:57;;;;;;;7.90;4.70;;;;;;;7.74;50.29;100233.84;4372870;32;34159;-90
2022/01/17 10:13:44;;;;;;;9.77;4.62;;;;;;;8.11;49.35;100230.25;4379536;32;33555;-89
2022/01/17 10:16:16;;;;;;;7.22;3.70;;;;;;;8.01;49.75;100228.78;4372437;32;34649;-90
2022/01/17 10:19:00;;;;;;;9.70;4.93;;;;;;;7.84;50.12;100242.38;4398772;32;32694;-90
2022/01/17 10:21:39;;;;;;;7.22;4.03;;;;;;;7.70;50.64;100234.81;4374543;32;34207;-90
2022/01/17 10:37:23;;;;;;;8.30;4.18;;;;;;;7.95;49.45;100199.09;4376061;32;32838;-90
2022/01/17 10:39:58;;;;;;;13.25;4.80;;;;;;;7.47;50.59;100189.84;4386581;32;32564;-90
2022/01/17 10:42:27;;;;;;;6.47;4.12;;;;;;;7.91;49.55;100192.19;4378732;32;32822;-91
2022/01/17 10:45:02;;;;;;;9.13;4.25;;;;;;;8.26;48.83;100176.34;4378644;32;33243;-89
2022/01/17 10:47:30;;;;;;;7.35;3.97;;;;;;;8.20;49.18;100166.88;4386902;32;32780;-90
2022/01/17 10:50:05;;;;;;;9.48;4.78;;;;;;;7.76;50.51;100171.56;4398485;32;33050;-90
2022/01/17 10:52:38;;;;;;;6.47;3.28;;;;;;;7.73;50.85;100182.16;4385347;32;32481;-90
2022/01/17 10:55:19;;;;;;;11.65;4.57;;;;;;;8.02;49.90;100176.13;4374116;32;32522;-90
2022/01/17 10:57:51;;;;;;;7.87;4.25;;;;;;;7.37;51.68;100178.72;4361495;32;32931;-91
2022/01/17 11:00:34;;;;;;;6.65;4.07;;;;;;;7.75;51.22;100169.84;4376422;32;33712;-91
2022/01/17 11:03:09;;;;;;;8.25;4.28;;;;;;;7.75;51.26;100161.97;4377919;32;33716;-91
2022/01/17 11:06:13;;;;;;;8.68;4.75;;;;;;;7.63;51.66;100144.75;4377151;32;33107;-92
2022/01/17 11:08:41;;;;;;;;;;;;;;;8.08;50.87;100120.75;4362313;32;33011;-92
2022/01/17 11:11:10;;;;;;;7.65;4.25;;;;;;;8.10;50.29;100120.69;4387324;32;32602;-91
2022/01/17 11:13:43;;;;;;;11.55;3.90;;;;;;;8.19;50.06;100133.59;4362539;32;32212;-91
2022/01/17 11:16:12;;;;;;;8.88;4.85;;;;;;;7.88;50.91;100120.41;4375062;32;33087;-91
2022/01/17 11:19:20;;;;;;;8.43;4.50;;;;;;;8.09;50.65;100111.09;4392591;32;33823;-92
2022/01/17 11:21:47;;;;;;;10.00;5.22;;;;;;;7.95;50.48;100112.34;4386284;32;33595;-92
2022/01/17 11:24:16;;;;;;;7.82;4.18;;;;;;;7.84;50.85;100109.16;4398181;32;34137;-91
2022/01/17 11:27:04;;;;;;;9.00;4.07;;;;;;;8.24;49.78;100089.59;4351214;32;33420;-92
2022/01/17 11:29:33;;;;;;;6.47;3.87;;;;;;;8.41;49.38;100079.47;4349802;32;33052;-92
2022/01/17 11:32:01;;;;;;;6.03;3.78;;;;;;;8.23;49.80;100081.75;4362579;32;31962;-91
2022/01/17 11:34:30;;;;;;;9.05;3.90;;;;;;;8.32;49.66;100079.72;4375322;32;32857;-91
2022/01/17 11:36:59;;;;;;;7.70;3.53;;;;;;;8.49;48.89;100079.22;4350810;32;33744;-91
2022/01/17 11:39:29;;;;;;;5.20;3.15;;;;;;;8.20;49.49;100086.19;4363216;32;32940;-91
2022/01/17 11:41:59;;;;;;;4.07;2.30;;;;;;;8.14;49.66;100114.44;4362326;32;32382;-91
2022/01/17 11:44:33;;;;;;;4.78;2.17;;;;;;;8.20;49.65;100106.38;4363776;32;32802;-92
2022/01/17 11:47:15;;;;;;;4.78;2.58;;;;;;;8.35;48.56;100090.12;4362554;32;33159;-92
2022/01/17 11:49:58;;;;;;;3.83;1.95;;;;;;;8.14;49.08;100109.19;4386495;32;34074;-92
2022/01/17 11:52:28;;;;;;;3.15;1.90;;;;;;;8.33;48.64;100097.22;4367546;32;32130;-92
2022/01/17 11:55:01;;;;;;;4.28;2.33;;;;;;;8.43;48.52;100098.69;4373774;32;32433;-92
2022/01/17 11:58:18;;;;;;;;;;;;;;;8.62;47.97;100087.59;4369979;32;32939;-92
2022/01/17 12:00:48;;;;;;;4.43;1.90;;;;;;;8.71;47.55;100082.91;4381705;32;33105;-91
2022/01/17 12:03:21;;;;;;;6.05;1.92;;;;;;;8.54;48.38;100071.19;4367542;32;32632;-92
2022/01/17 12:05:54;;;;;;;3.47;1.58;;;;;;;8.68;48.04;100055.81;4374103;32;32390;-91
2022/01/17 12:08:34;;;;;;;5.82;2.60;;;;;;;8.76;47.89;100061.72;4375898;32;32898;-92
2022/01/17 12:11:03;;;;;;;7.07;3.58;;;;;;;8.47;48.29;100046.84;4378070;32;33241;-92
2022/01/17 12:13:52;;;;;;;8.23;2.28;;;;;;;8.51;48.59;100052.88;4368345;32;31917;-92
2022/01/17 12:16:37;;;;;;;7.12;3.92;;;;;;;8.59;48.48;100048.22;4391390;32;32039;-92
2022/01/17 12:19:07;;;;;;;7.85;3.70;;;;;;;8.76;48.20;100043.28;4378643;32;33149;-91
2022/01/17 12:21:44;;;;;;;5.20;2.97;;;;;;;8.24;49.05;100036.13;4415601;32;32504;-91
2022/01/17 12:24:32;;;;;;;6.90;3.58;;;;;;;8.26;49.11;100040.44;4401828;32;31778;-93